createdAt,value
2023-11-04T00:01:38.115Z,18.63
2023-11-04T00:03:43.615Z,14.93
2023-11-04T00:05:49.282Z,15.57
2023-11-04T00:07:56.996Z,15.75
2023-11-04T00:10:02.870Z,15.18
2023-11-04T00:12:09.155Z,15.93
2023-11-04T00:14:14.850Z,17.95
2023-11-04T00:16:20.031Z,9.73
2023-11-04T00:18:26.135Z,11.68
2023-11-04T00:20:39.519Z,10.73
2023-11-04T00:22:50.929Z,7.97
2023-11-04T00:24:58.625Z,10.20
2023-11-04T00:27:04.053Z,14.50
2023-11-04T00:29:09.557Z,11.25
2023-11-04T00:31:15.892Z,11.25
2023-11-04T00:33:21.146Z,9.00
2023-11-04T00:35:27.002Z,10.82
2023-11-04T00:37:32.106Z,15.35
2023-11-04T00:39:37.895Z,11.93
2023-11-04T00:41:45.005Z,12.43
2023-11-04T00:43:50.865Z,9.77
2023-11-04T00:45:56.818Z,17.52
2023-11-04T00:48:02.840Z,11.55
2023-11-04T00:50:17.549Z,10.30
2023-11-04T00:52:23.494Z,12.23
2023-11-04T00:54:29.457Z,15.25
2023-11-04T00:56:35.244Z,8.65
2023-11-04T00:58:43.072Z,11.60
2023-11-04T01:00:48.803Z,13.93
2023-11-04T01:02:55.561Z,11.57
2023-11-04T01:05:02.221Z,10.23
2023-11-04T01:07:07.969Z,9.23
2023-11-04T01:09:10.680Z,14.82
2023-11-04T01:11:16.324Z,11.98
2023-11-04T01:13:18.966Z,7.05
2023-11-04T01:15:27.373Z,9.57
2023-11-04T01:17:32.535Z,8.07
2023-11-04T01:19:37.741Z,11.23
2023-11-04T01:21:43.944Z,11.40
2023-11-04T01:23:49.777Z,12.65
2023-11-04T01:25:55.508Z,7.97
2023-11-04T01:28:01.181Z,19.88
2023-11-04T01:30:07.196Z,8.82
2023-11-04T01:32:14.908Z,8.52
2023-11-04T01:34:20.211Z,8.18
2023-11-04T01:36:26.088Z,8.05
2023-11-04T01:38:32.458Z,10.13
2023-11-04T01:40:38.007Z,5.40
2023-11-04T01:42:44.658Z,6.45
2023-11-04T01:44:50.635Z,6.32
2023-11-04T01:46:57.047Z,9.32
2023-11-04T01:49:04.844Z,6.93
2023-11-04T01:51:12.038Z,7.50
2023-11-04T01:53:17.299Z,6.78
2023-11-04T01:55:23.807Z,5.10
2023-11-04T01:57:29.562Z,5.20
2023-11-04T01:59:35.749Z,5.47
2023-11-04T02:01:42.189Z,5.80
2023-11-04T02:03:47.547Z,3.38
2023-11-04T02:05:56.805Z,6.78
2023-11-04T02:08:02.642Z,5.30
2023-11-04T02:10:10.068Z,3.78
2023-11-04T02:12:16.831Z,6.70
2023-11-04T02:14:22.478Z,3.97
2023-11-04T02:16:28.622Z,6.00
2023-11-04T02:18:33.950Z,3.35
2023-11-04T02:20:41.509Z,3.35
2023-11-04T02:22:49.444Z,4.45
2023-11-04T02:24:52.472Z,4.50
2023-11-04T02:26:58.240Z,4.55
2023-11-04T02:29:03.353Z,4.90
2023-11-04T02:31:07.338Z,3.63
2023-11-04T02:33:12.475Z,3.00
2023-11-04T02:35:18.004Z,4.05
2023-11-04T02:37:24.079Z,3.80
2023-11-04T02:39:32.127Z,2.30
2023-11-04T02:41:38.212Z,1.67
2023-11-04T02:43:43.615Z,1.73
2023-11-04T02:45:50.268Z,2.20
2023-11-04T02:47:53.637Z,4.68
2023-11-04T02:49:59.335Z,2.50
2023-11-04T02:52:09.250Z,2.03
2023-11-04T02:54:16.429Z,3.75
2023-11-04T02:56:25.221Z,5.18
2023-11-04T02:58:30.322Z,3.50
2023-11-04T03:00:35.948Z,2.60
2023-11-04T03:02:42.395Z,1.77
2023-11-04T03:04:48.132Z,1.70
2023-11-04T03:06:54.139Z,3.85
2023-11-04T03:08:59.348Z,1.63
2023-11-04T03:11:03.052Z,1.13
2023-11-04T03:13:10.881Z,2.80
2023-11-04T03:15:16.670Z,3.30
2023-11-04T03:17:19.684Z,1.17
2023-11-04T03:19:25.527Z,5.40
2023-11-04T03:21:31.640Z,1.35
2023-11-04T03:23:37.032Z,3.35
2023-11-04T03:25:42.609Z,1.98
2023-11-04T03:27:48.297Z,2.10
2023-11-04T03:29:56.029Z,3.10
2023-11-04T03:31:59.140Z,2.92
2023-11-04T03:34:04.765Z,1.63
2023-11-04T03:36:12.690Z,2.17
2023-11-04T03:38:16.600Z,3.80
2023-11-04T03:40:21.724Z,2.50
2023-11-04T03:42:28.035Z,2.97
2023-11-04T03:44:33.168Z,3.47
2023-11-04T03:46:41.953Z,5.03
2023-11-04T03:48:47.168Z,1.98
2023-11-04T03:50:50.280Z,2.88
2023-11-04T03:52:57.436Z,4.35
2023-11-04T03:55:02.637Z,3.05
2023-11-04T03:57:09.049Z,3.08
2023-11-04T03:59:14.265Z,2.47
2023-11-04T04:01:19.958Z,3.00
2023-11-04T04:03:28.852Z,3.50
2023-11-04T04:05:34.476Z,3.33
2023-11-04T04:07:38.275Z,5.30
2023-11-04T04:09:43.561Z,1.88
2023-11-04T04:11:49.247Z,6.88
2023-11-04T04:13:55.094Z,2.30
2023-11-04T04:16:01.472Z,4.22
2023-11-04T04:18:07.495Z,3.08
2023-11-04T04:20:17.617Z,2.45
2023-11-04T04:22:23.185Z,3.85
2023-11-04T04:24:29.045Z,5.25
2023-11-04T04:26:34.670Z,4.72
2023-11-04T04:28:40.577Z,5.20
2023-11-04T04:30:46.132Z,3.50
2023-11-04T04:32:51.810Z,4.05
2023-11-04T04:34:57.147Z,5.47
2023-11-04T04:37:04.839Z,2.75
2023-11-04T04:39:08.992Z,3.97
2023-11-04T04:41:14.156Z,4.88
2023-11-04T04:43:20.535Z,3.78
2023-11-04T04:45:26.510Z,3.60
2023-11-04T04:47:31.722Z,5.82
2023-11-04T04:49:37.005Z,7.13
2023-11-04T04:51:42.251Z,2.95
2023-11-04T04:53:50.750Z,5.13
2023-11-04T04:55:55.162Z,6.43
2023-11-04T04:58:00.377Z,3.67
2023-11-04T05:00:06.722Z,4.97
2023-11-04T05:02:11.822Z,6.20
2023-11-04T05:04:17.984Z,4.47
2023-11-04T05:06:23.161Z,7.80
2023-11-04T05:08:25.689Z,7.90
2023-11-04T05:12:39.497Z,4.95
2023-11-04T05:14:45.747Z,4.00
2023-11-04T05:16:50.845Z,4.25
2023-11-04T05:18:56.020Z,6.10
2023-11-04T05:21:04.494Z,4.50
2023-11-04T05:23:10.211Z,4.38
2023-11-04T05:25:16.302Z,5.15
2023-11-04T05:27:24.191Z,4.22
2023-11-04T05:29:29.324Z,3.60
2023-11-04T05:31:35.036Z,4.13
2023-11-04T05:33:40.296Z,5.93
2023-11-04T05:35:46.855Z,4.45
2023-11-04T05:37:51.975Z,4.88
2023-11-04T05:39:55.112Z,6.32
2023-11-04T05:42:00.453Z,3.45
2023-11-04T05:44:09.383Z,2.92
2023-11-04T05:46:15.072Z,7.90
2023-11-04T05:48:20.695Z,4.55
2023-11-04T05:50:26.284Z,10.90
2023-11-04T05:52:31.504Z,3.42
2023-11-04T05:54:37.371Z,4.82
2023-11-04T05:56:42.832Z,4.65
2023-11-04T05:58:45.627Z,3.83
2023-11-04T06:00:53.844Z,4.43
2023-11-04T06:02:59.429Z,5.05
2023-11-04T06:05:05.499Z,4.72
2023-11-04T06:07:10.840Z,4.07
2023-11-04T06:09:16.020Z,4.65
2023-11-04T06:11:22.565Z,5.97
2023-11-04T06:13:28.615Z,4.18
2023-11-04T06:15:34.932Z,5.32
2023-11-04T06:17:42.858Z,6.07
2023-11-04T06:19:48.586Z,8.73
2023-11-04T06:21:53.841Z,4.53
2023-11-04T06:23:58.991Z,4.32
2023-11-04T06:26:01.501Z,4.90
2023-11-04T06:28:10.991Z,3.72
2023-11-04T06:30:14.974Z,6.30
2023-11-04T06:32:20.457Z,4.20
2023-11-04T06:34:26.015Z,6.28
2023-11-04T06:36:36.128Z,3.75
2023-11-04T06:38:39.362Z,4.75
2023-11-04T06:42:49.947Z,6.03
2023-11-04T06:44:55.064Z,4.10
2023-11-04T06:47:00.746Z,3.72
2023-11-04T06:49:07.674Z,5.00
2023-11-04T06:51:21.869Z,8.10
2023-11-04T06:53:26.972Z,5.15
2023-11-04T06:55:34.746Z,5.05
2023-11-04T06:57:39.884Z,6.32
2023-11-04T06:59:45.453Z,2.90
2023-11-04T07:01:54.253Z,3.17
2023-11-04T07:03:59.458Z,5.40
2023-11-04T07:06:05.486Z,4.57
2023-11-04T07:08:15.359Z,7.03
2023-11-04T07:10:21.164Z,7.20
2023-11-04T07:12:26.361Z,5.10
2023-11-04T07:14:32.685Z,5.97
2023-11-04T07:16:36.069Z,4.85
2023-11-04T07:18:41.669Z,3.95
2023-11-04T07:20:49.689Z,6.90
2023-11-04T07:22:54.895Z,4.63
2023-11-04T07:25:00.106Z,6.40
2023-11-04T07:27:05.298Z,5.20
2023-11-04T07:29:11.886Z,4.75
2023-11-04T07:31:19.473Z,3.15
2023-11-04T07:33:24.664Z,6.47
2023-11-04T07:35:29.846Z,3.20
2023-11-04T07:37:34.996Z,2.72
2023-11-04T07:39:42.817Z,4.10
2023-11-04T07:41:49.411Z,6.28
2023-11-04T07:43:54.970Z,10.80
2023-11-04T07:45:58.537Z,5.13
2023-11-04T07:48:04.629Z,4.40
2023-11-04T07:50:11.869Z,4.47
2023-11-04T07:52:17.912Z,2.95
2023-11-04T07:54:23.057Z,3.80
2023-11-04T07:56:28.428Z,4.68
2023-11-04T07:58:36.351Z,3.58
2023-11-04T08:00:41.541Z,4.95
2023-11-04T08:02:49.186Z,3.67
2023-11-04T08:04:54.955Z,3.63
2023-11-04T08:07:00.084Z,9.50
2023-11-04T08:09:06.101Z,5.47
2023-11-04T08:11:11.273Z,8.77
2023-11-04T08:13:16.510Z,8.38
2023-11-04T08:15:24.238Z,3.45
2023-11-04T08:17:29.695Z,4.47
2023-11-04T08:19:34.834Z,4.00
2023-11-04T08:21:40.204Z,5.10
2023-11-04T08:23:45.510Z,5.13
2023-11-04T08:25:51.126Z,3.70
2023-11-04T08:27:56.334Z,2.42
2023-11-04T08:30:01.500Z,2.55
2023-11-04T08:32:10.458Z,2.95
2023-11-04T08:34:15.838Z,4.50
2023-11-04T08:36:21.672Z,2.95
2023-11-04T08:38:26.800Z,5.13
2023-11-04T08:40:29.357Z,5.00
2023-11-04T08:42:35.126Z,2.90
2023-11-04T08:44:40.253Z,5.45
2023-11-04T08:46:45.556Z,2.22
2023-11-04T08:48:53.423Z,3.88
2023-11-04T08:50:59.078Z,5.10
2023-11-04T08:53:05.107Z,2.80
2023-11-04T08:55:11.486Z,2.35
2023-11-04T08:57:17.114Z,3.33
2023-11-04T08:59:22.251Z,3.78
2023-11-04T09:01:27.425Z,3.20
2023-11-04T09:03:34.057Z,3.22
2023-11-04T09:05:44.017Z,6.97
2023-11-04T09:07:49.492Z,3.30
2023-11-04T09:09:54.963Z,2.45
2023-11-04T09:12:00.141Z,2.53
2023-11-04T09:14:05.917Z,2.30
2023-11-04T09:16:12.304Z,2.70
2023-11-04T09:18:20.012Z,3.47
2023-11-04T09:20:25.519Z,2.53
2023-11-04T09:22:34.425Z,3.33
2023-11-04T09:24:39.703Z,2.42
2023-11-04T09:26:45.421Z,3.28
2023-11-04T09:28:50.859Z,4.70
2023-11-04T09:30:56.106Z,3.67
2023-11-04T09:33:01.924Z,4.55
2023-11-04T09:35:08.072Z,5.75
2023-11-04T09:37:13.802Z,2.10
2023-11-04T09:39:21.606Z,2.53
2023-11-04T09:41:27.282Z,2.58
2023-11-04T09:43:32.469Z,3.72
2023-11-04T09:45:37.773Z,4.28
2023-11-04T09:47:43.667Z,3.72
2023-11-04T09:49:47.699Z,3.42
2023-11-04T09:51:53.640Z,6.00
2023-11-04T09:54:03.776Z,2.88
2023-11-04T09:56:12.777Z,3.78
2023-11-04T09:58:18.347Z,2.83
2023-11-04T10:00:25.749Z,3.90
2023-11-04T10:02:31.905Z,2.05
2023-11-04T10:04:37.227Z,4.50
2023-11-04T10:06:43.307Z,3.78
2023-11-04T10:08:46.751Z,1.35
2023-11-04T10:10:52.042Z,2.60
2023-11-04T10:12:57.528Z,2.88
2023-11-04T10:15:03.243Z,2.63
2023-11-04T10:17:09.134Z,2.88
2023-11-04T10:19:15.565Z,2.22
2023-11-04T10:21:23.132Z,3.28
2023-11-04T10:23:28.388Z,3.25
2023-11-04T10:25:34.063Z,1.88
2023-11-04T10:27:40.262Z,3.47
2023-11-04T10:29:48.434Z,2.45
2023-11-04T10:31:56.799Z,1.40
2023-11-04T10:34:04.945Z,1.35
2023-11-04T10:36:12.968Z,3.38
2023-11-04T10:38:21.292Z,2.58
2023-11-04T10:40:28.853Z,3.38
2023-11-04T10:42:32.752Z,2.80
2023-11-04T10:44:43.022Z,5.43
2023-11-04T10:47:00.924Z,1.08
2023-11-04T10:49:17.956Z,2.10
2023-11-04T10:51:29.904Z,1.80
2023-11-04T10:53:46.981Z,3.92
2023-11-04T10:56:02.597Z,3.88
2023-11-04T10:58:12.239Z,3.20
2023-11-04T11:00:25.086Z,1.30
2023-11-04T11:02:34.315Z,1.17
2023-11-04T11:04:41.828Z,1.15
2023-11-04T11:06:45.285Z,2.75
2023-11-04T11:08:51.379Z,4.25
2023-11-04T11:11:14.623Z,3.53
2023-11-04T11:13:25.197Z,9.13
2023-11-04T11:15:29.506Z,5.63
2023-11-04T11:17:37.771Z,3.20
2023-11-04T11:19:53.095Z,3.13
2023-11-04T11:21:58.326Z,2.30
2023-11-04T11:24:11.508Z,2.58
2023-11-04T11:26:16.825Z,3.22
2023-11-04T11:28:25.070Z,3.13
2023-11-04T11:30:49.330Z,7.50
2023-11-04T11:32:54.548Z,4.07
2023-11-04T11:35:00.676Z,4.90
2023-11-04T11:37:07.760Z,2.08
2023-11-04T11:39:10.890Z,5.70
2023-11-04T11:41:17.874Z,1.95
2023-11-04T11:43:23.801Z,3.47
2023-11-04T11:45:30.938Z,3.30
2023-11-04T11:47:36.452Z,2.60
2023-11-04T11:49:44.241Z,3.67
2023-11-04T11:51:50.044Z,2.35
2023-11-04T11:53:55.830Z,2.78
2023-11-04T11:56:04.062Z,6.10
2023-11-04T11:58:09.320Z,5.72
2023-11-04T12:00:16.645Z,3.30
2023-11-04T12:02:21.766Z,2.40
2023-11-04T12:04:28.251Z,3.65
2023-11-04T12:06:38.312Z,2.67
2023-11-04T12:08:40.965Z,3.97
2023-11-04T12:10:46.577Z,3.30
2023-11-04T12:12:51.791Z,2.17
2023-11-04T12:15:03.857Z,3.67
2023-11-04T12:17:10.079Z,1.75
2023-11-04T12:19:15.376Z,2.15
2023-11-04T12:21:18.644Z,1.92
2023-11-04T12:23:31.206Z,2.67
2023-11-04T12:25:36.787Z,1.33
2023-11-04T12:27:49.313Z,1.10
2023-11-04T12:29:56.478Z,1.73
2023-11-04T12:32:03.773Z,2.33
2023-11-04T12:34:11.180Z,1.88
2023-11-04T12:36:17.965Z,2.50
2023-11-04T12:38:26.499Z,3.97
2023-11-04T12:40:32.713Z,1.70
2023-11-04T12:42:40.053Z,2.55
2023-11-04T12:44:46.214Z,1.50
2023-11-04T12:46:53.262Z,3.03
2023-11-04T12:48:59.277Z,1.75
2023-11-04T12:51:02.481Z,3.05
2023-11-04T12:55:15.828Z,4.72
2023-11-04T12:57:21.990Z,2.60
2023-11-04T12:59:27.288Z,1.85
2023-11-04T13:01:32.466Z,2.03
2023-11-04T13:03:37.698Z,1.05
2023-11-04T13:05:43.057Z,2.47
2023-11-04T13:07:46.144Z,3.80
2023-11-04T13:09:51.841Z,3.92
2023-11-04T13:11:57.982Z,3.10
2023-11-04T13:14:03.096Z,1.38
2023-11-04T13:16:10.443Z,3.65
2023-11-04T13:18:16.317Z,4.63
2023-11-04T13:20:21.480Z,2.17
2023-11-04T13:22:26.808Z,4.40
2023-11-04T13:24:32.003Z,4.75
2023-11-04T13:26:37.177Z,3.08
2023-11-04T13:28:45.433Z,2.90
2023-11-04T13:30:51.479Z,3.67
2023-11-04T13:32:56.724Z,2.35
2023-11-04T13:35:02.161Z,1.35
2023-11-04T13:37:07.662Z,1.70
2023-11-04T13:39:14.081Z,2.83
2023-11-04T13:41:19.486Z,3.88
2023-11-04T13:43:24.916Z,4.57
2023-11-04T13:45:32.646Z,2.80
2023-11-04T13:47:38.722Z,3.67
2023-11-04T13:49:43.985Z,2.90
2023-11-04T13:51:49.209Z,3.75
2023-11-04T13:53:55.169Z,6.15
2023-11-04T13:56:00.772Z,7.32
2023-11-04T13:58:06.306Z,3.38
2023-11-04T14:00:13.524Z,2.33
2023-11-04T14:02:21.590Z,2.63
2023-11-04T14:04:27.802Z,5.70
2023-11-04T14:06:30.437Z,2.58
2023-11-04T14:08:35.533Z,2.53
2023-11-04T14:10:40.666Z,4.85
2023-11-04T14:12:45.884Z,3.50
2023-11-04T14:14:53.708Z,3.40
2023-11-04T14:16:59.070Z,1.27
2023-11-04T14:19:07.843Z,3.42
2023-11-04T14:21:13.273Z,4.28
2023-11-04T14:23:18.391Z,3.88
2023-11-04T14:25:20.994Z,4.70
2023-11-04T14:27:26.106Z,2.42
2023-11-04T14:29:29.385Z,2.45
2023-11-04T14:31:34.588Z,2.45
2023-11-04T14:33:37.151Z,3.97
2023-11-04T14:35:45.042Z,4.38
2023-11-04T14:37:50.223Z,4.05
2023-11-04T14:39:55.333Z,1.33
2023-11-04T14:42:00.513Z,3.75
2023-11-04T14:44:05.806Z,3.92
2023-11-04T14:46:18.520Z,3.42
2023-11-04T14:48:23.787Z,2.90
2023-11-04T14:50:29.033Z,2.58
2023-11-04T14:52:37.936Z,2.90
2023-11-04T14:54:43.074Z,1.83
2023-11-04T14:56:48.160Z,3.65
2023-11-04T14:58:54.233Z,2.63
2023-11-04T15:01:00.675Z,2.58
2023-11-04T15:03:07.098Z,1.70
2023-11-04T15:05:13.378Z,2.33
2023-11-04T15:07:19.573Z,2.45
2023-11-04T15:09:27.272Z,5.97
2023-11-04T15:11:32.419Z,2.72
2023-11-04T15:13:37.523Z,1.60
2023-11-04T15:15:42.988Z,2.60
2023-11-04T15:17:50.578Z,2.20
2023-11-04T15:19:56.018Z,2.42
2023-11-04T15:22:01.221Z,2.53
2023-11-04T15:24:07.070Z,3.60
2023-11-04T15:26:14.837Z,1.08
2023-11-04T15:28:20.021Z,3.20
2023-11-04T15:30:26.266Z,1.85
2023-11-04T15:32:31.435Z,3.00
2023-11-04T15:34:36.710Z,1.92
2023-11-04T15:36:42.314Z,2.38
2023-11-04T15:38:47.503Z,3.42
2023-11-04T15:40:52.616Z,2.17
2023-11-04T15:43:01.525Z,2.35
2023-11-04T15:45:07.824Z,1.95
2023-11-04T15:47:12.971Z,2.28
2023-11-04T15:49:18.140Z,2.85
2023-11-04T15:51:24.470Z,1.25
2023-11-04T15:53:29.970Z,3.08
2023-11-04T15:55:35.118Z,2.28
2023-11-04T15:57:41.429Z,2.78
2023-11-04T15:59:49.239Z,2.28
2023-11-04T16:01:54.625Z,1.58
2023-11-04T16:03:59.878Z,2.20
2023-11-04T16:06:05.724Z,2.17
2023-11-04T16:08:10.854Z,2.35
2023-11-04T16:10:16.372Z,1.52
2023-11-04T16:12:22.103Z,1.98
2023-11-04T16:14:27.243Z,3.13
2023-11-04T16:16:35.582Z,1.67
2023-11-04T16:18:40.881Z,2.97
2023-11-04T16:20:46.290Z,1.77
2023-11-04T16:22:52.185Z,1.80
2023-11-04T16:24:57.510Z,3.17
2023-11-04T16:27:02.834Z,2.28
2023-11-04T16:29:08.446Z,3.47
2023-11-04T16:31:23.682Z,2.00
2023-11-04T16:33:31.756Z,1.88
2023-11-04T16:35:37.476Z,2.08
2023-11-04T16:37:42.601Z,2.65
2023-11-04T16:39:45.793Z,2.30
2023-11-04T16:41:51.195Z,4.07
2023-11-04T16:43:56.664Z,5.80
2023-11-04T16:46:01.794Z,4.45
2023-11-04T16:48:07.560Z,4.00
2023-11-04T16:50:16.516Z,3.22
2023-11-04T16:52:21.773Z,2.75
2023-11-04T16:54:26.952Z,2.00
2023-11-04T16:56:32.048Z,3.38
2023-11-04T16:58:37.485Z,2.80
2023-11-04T17:00:43.367Z,4.30
2023-11-04T17:02:49.380Z,4.45
2023-11-04T17:04:54.757Z,4.63
2023-11-04T17:07:00.473Z,2.65
2023-11-04T17:09:06.215Z,2.40
2023-11-04T17:11:11.567Z,3.15
2023-11-04T17:13:14.496Z,2.95
2023-11-04T17:15:19.633Z,1.67
2023-11-04T17:17:24.970Z,2.50
2023-11-04T17:19:30.182Z,2.42
2023-11-04T17:21:35.505Z,4.95
2023-11-04T17:23:43.245Z,3.83
2023-11-04T17:25:48.627Z,2.65
2023-11-04T17:27:54.212Z,2.33
2023-11-04T17:29:59.326Z,3.17
2023-11-04T17:32:04.671Z,1.50
2023-11-04T17:34:09.875Z,2.35
2023-11-04T17:36:15.887Z,2.85
2023-11-04T17:38:21.412Z,3.13
2023-11-04T17:40:29.280Z,2.60
2023-11-04T17:42:39.924Z,1.52
2023-11-04T17:44:46.053Z,3.35
2023-11-04T17:46:51.583Z,3.15
2023-11-04T17:48:56.940Z,3.78
2023-11-04T17:51:02.099Z,2.38
2023-11-04T17:53:07.308Z,2.80
2023-11-04T17:55:12.878Z,4.15
2023-11-04T17:57:21.818Z,2.58
2023-11-04T17:59:27.827Z,4.45
2023-11-04T18:01:32.911Z,1.33
2023-11-04T18:03:35.925Z,4.28
2023-11-04T18:05:41.330Z,1.55
2023-11-04T18:07:46.894Z,2.13
2023-11-04T18:09:52.052Z,3.13
2023-11-04T18:11:57.914Z,3.28
2023-11-04T18:14:05.633Z,2.03
2023-11-04T18:16:12.511Z,2.95
2023-11-04T18:18:17.933Z,3.17
2023-11-04T18:20:24.750Z,4.38
2023-11-04T18:22:27.485Z,3.03
2023-11-04T18:24:32.557Z,2.70
2023-11-04T18:26:43.460Z,1.27
2023-11-04T18:28:49.831Z,3.60
2023-11-04T18:30:57.922Z,3.67
2023-11-04T18:33:03.581Z,2.72
2023-11-04T18:35:12.272Z,2.40
2023-11-04T18:37:16.155Z,3.45
2023-11-04T18:41:27.011Z,2.75
2023-11-04T18:43:32.106Z,2.35
2023-11-04T18:45:34.784Z,3.78
2023-11-04T18:47:42.521Z,3.17
2023-11-04T18:49:48.473Z,2.60
2023-11-04T18:51:53.978Z,6.10
2023-11-04T18:53:56.720Z,3.00
2023-11-04T18:56:02.090Z,3.38
2023-11-04T18:58:08.083Z,3.78
2023-11-04T19:00:15.046Z,3.22
2023-11-04T19:02:21.182Z,6.30
2023-11-04T19:04:28.965Z,5.13
2023-11-04T19:06:34.233Z,3.05
2023-11-04T19:08:42.733Z,5.88
2023-11-04T19:10:48.070Z,4.55
2023-11-04T19:12:53.179Z,5.03
2023-11-04T19:14:58.278Z,4.15
2023-11-04T19:17:03.369Z,8.27
2023-11-04T19:19:08.794Z,4.63
2023-11-04T19:21:17.213Z,7.88
2023-11-04T19:23:22.385Z,5.32
2023-11-04T19:25:27.498Z,3.53
2023-11-04T19:27:32.595Z,4.43
2023-11-04T19:29:38.214Z,2.60
2023-11-04T19:31:43.322Z,2.83
2023-11-04T19:33:46.040Z,2.63
2023-11-04T19:35:51.364Z,2.55
2023-11-04T19:37:59.261Z,2.45
2023-11-04T19:40:07.052Z,3.55
2023-11-04T19:42:12.528Z,5.28
2023-11-04T19:44:18.134Z,8.50
2023-11-04T19:46:24.552Z,10.10
2023-11-04T19:48:32.586Z,9.40
2023-11-04T19:50:37.778Z,6.22
2023-11-04T19:52:42.992Z,7.50
2023-11-04T19:54:50.956Z,6.32
2023-11-04T19:56:56.440Z,6.57
2023-11-04T19:59:02.365Z,5.93
2023-11-04T20:01:09.071Z,8.10
2023-11-04T20:03:14.288Z,5.38
2023-11-04T20:05:21.452Z,4.25
2023-11-04T20:07:26.847Z,4.35
2023-11-04T20:09:32.077Z,4.93
2023-11-04T20:11:39.758Z,5.15
2023-11-04T20:13:44.875Z,4.47
2023-11-04T20:15:49.990Z,4.32
2023-11-04T20:17:55.241Z,2.65
2023-11-04T20:20:00.440Z,3.83
2023-11-04T20:22:07.332Z,4.22
2023-11-04T20:24:13.520Z,7.45
2023-11-04T20:26:18.698Z,5.53
2023-11-04T20:28:26.459Z,4.82
2023-11-04T20:30:29.073Z,6.65
2023-11-04T20:32:34.267Z,6.57
2023-11-04T20:34:39.874Z,6.55
2023-11-04T20:36:44.971Z,4.82
2023-11-04T20:38:50.082Z,8.35
2023-11-04T20:40:55.725Z,7.18
2023-11-04T20:43:00.873Z,5.68
2023-11-04T20:45:09.729Z,3.85
2023-11-04T20:47:16.466Z,3.63
2023-11-04T20:49:22.501Z,2.50
2023-11-04T20:51:27.663Z,3.67
2023-11-04T20:53:32.836Z,5.75
2023-11-04T20:55:37.922Z,5.88
2023-11-04T20:57:43.027Z,5.05
2023-11-04T20:59:48.539Z,5.72
2023-11-04T21:01:56.380Z,9.05
2023-11-04T21:04:02.596Z,4.32
2023-11-04T21:06:09.478Z,6.50
2023-11-04T21:08:14.934Z,8.23
2023-11-04T21:10:20.130Z,11.35
2023-11-04T21:12:23.209Z,6.50
2023-11-04T21:14:28.565Z,4.75
2023-11-04T21:16:31.093Z,5.72
2023-11-04T21:18:41.090Z,5.38
2023-11-04T21:20:43.619Z,3.45
2023-11-04T21:22:49.354Z,5.50
2023-11-04T21:24:57.436Z,4.78
2023-11-04T21:27:02.573Z,3.95
2023-11-04T21:29:07.683Z,7.55
2023-11-04T21:31:12.943Z,6.22
2023-11-04T21:33:18.494Z,4.28
2023-11-04T21:35:26.258Z,6.05
2023-11-04T21:37:31.598Z,4.60
2023-11-04T21:39:36.790Z,3.92
2023-11-04T21:41:42.159Z,6.82
2023-11-04T21:43:45.230Z,4.97
2023-11-04T21:45:50.360Z,4.53
2023-11-04T21:47:55.194Z,6.10
2023-11-04T21:50:00.347Z,3.80
2023-11-04T21:52:08.764Z,5.68
2023-11-04T21:54:13.994Z,6.53
2023-11-04T21:56:19.098Z,3.83
2023-11-04T21:58:24.290Z,2.97
2023-11-04T22:00:29.931Z,3.42
2023-11-04T22:02:35.051Z,2.78
2023-11-04T22:04:40.214Z,3.30
2023-11-04T22:06:45.368Z,3.42
2023-11-04T22:08:50.702Z,4.40
2023-11-04T22:10:56.264Z,4.57
2023-11-04T22:13:01.486Z,4.47
2023-11-04T22:15:09.016Z,2.78
2023-11-04T22:17:11.915Z,2.45
2023-11-04T22:19:17.236Z,3.00
2023-11-04T22:21:20.772Z,3.45
2023-11-04T22:23:25.931Z,5.30
2023-11-04T22:25:34.229Z,4.07
2023-11-04T22:27:39.878Z,1.92
2023-11-04T22:29:42.408Z,4.40
2023-11-04T22:33:53.196Z,3.00
2023-11-04T22:35:58.526Z,2.75
2023-11-04T22:38:03.998Z,3.20
2023-11-04T22:40:09.243Z,3.17
2023-11-04T22:42:17.360Z,4.97
2023-11-04T22:44:19.883Z,2.75
2023-11-04T22:46:25.021Z,2.28
2023-11-04T22:48:31.533Z,2.88
2023-11-04T22:50:37.392Z,4.03
2023-11-04T22:52:43.484Z,1.90
2023-11-04T22:54:48.620Z,2.90
2023-11-04T22:56:54.541Z,2.30
2023-11-04T22:59:02.410Z,7.50
2023-11-04T23:01:08.291Z,4.15
2023-11-04T23:03:16.931Z,2.17
2023-11-04T23:05:22.297Z,4.38
2023-11-04T23:07:29.078Z,5.25
2023-11-04T23:09:34.160Z,4.28
2023-11-04T23:11:39.283Z,4.53
2023-11-04T23:13:45.305Z,4.70
2023-11-04T23:15:53.423Z,4.53
2023-11-04T23:17:58.887Z,4.93
2023-11-04T23:20:03.969Z,4.25
2023-11-04T23:22:09.172Z,2.47
2023-11-04T23:24:12.328Z,4.95
2023-11-04T23:26:18.038Z,5.82
2023-11-04T23:28:23.945Z,4.35
2023-11-04T23:30:29.976Z,3.17
2023-11-04T23:32:38.884Z,4.70
2023-11-04T23:34:44.074Z,4.10
2023-11-04T23:36:49.255Z,8.30
2023-11-04T23:38:54.476Z,7.80
2023-11-04T23:41:00.234Z,3.63
2023-11-04T23:43:06.799Z,5.22
2023-11-04T23:45:13.687Z,5.13
2023-11-04T23:47:18.821Z,5.07
2023-11-04T23:49:27.559Z,3.80
2023-11-04T23:51:32.681Z,4.80
2023-11-04T23:53:38.344Z,5.25
2023-11-04T23:55:43.465Z,7.80
2023-11-04T23:57:48.579Z,4.63
2023-11-04T23:59:53.673Z,4.53
